Time;durP1;ratioP1;P1;durP2;ratioP2;P2;SDS_P1;SDS_P2;PMS_P1;PMS_P2;Temp;Humidity;BMP_temperature;BMP_pressure;BME280_temperature;BME280_humidity;BME280_pressure;Samples;Min_cycle;Max_cycle;Signal;HPM_P1;HPM_P2
2023/01/25 00:01:52;;;;;;;6.80;3.10;;;;;;;;;;4950178;28;93147;-79
2023/01/25 00:04:19;;;;;;;8.68;3.22;;;;;;;;;;4954935;28;92832;-79
2023/01/25 00:06:46;;;;;;;7.03;3.40;;;;;;;;;;4941510;28;93385;-79
2023/01/25 00:09:12;;;;;;;6.68;2.97;;;;;;;;;;4953233;28;92492;-78
2023/01/25 00:11:39;;;;;;;7.25;3.30;;;;;;;;;;4938786;28;93227;-79
2023/01/25 00:14:05;;;;;;;6.10;2.88;;;;;;;;;;4936480;28;93289;-79
2023/01/25 00:16:32;;;;;;;7.45;3.40;;;;;;;;;;4936162;28;92284;-79
2023/01/25 00:18:58;;;;;;;7.53;3.10;;;;;;;;;;4933550;28;92608;-79
2023/01/25 00:21:25;;;;;;;6.97;3.00;;;;;;;;;;4950530;28;93231;-78
2023/01/25 00:23:51;;;;;;;7.90;3.30;;;;;;;;;;4954208;28;95185;-79
2023/01/25 00:26:18;;;;;;;8.15;3.22;;;;;;;;;;4960696;28;95164;-78
2023/01/25 00:28:52;;;;;;;6.75;3.08;;;;;;;;;;4958602;28;93007;-79
2023/01/25 00:31:32;;;;;;;7.88;2.97;;;;;;;;;;4957364;28;92815;-80
2023/01/25 00:34:17;;;;;;;6.85;3.20;;;;;;;;;;4955501;28;93179;-79
2023/01/25 00:36:44;;;;;;;8.77;3.08;;;;;;;;;;4955327;28;92544;-79
2023/01/25 00:39:11;;;;;;;8.23;3.10;;;;;;;;;;4931164;28;92751;-79
2023/01/25 00:41:38;;;;;;;8.45;3.05;;;;;;;;;;4930961;28;92688;-79
2023/01/25 00:44:05;;;;;;;6.82;3.15;;;;;;;;;;4929889;28;94482;-79
2023/01/25 00:46:31;;;;;;;5.63;2.72;;;;;;;;;;4930787;28;92956;-79
2023/01/25 00:48:58;;;;;;;6.88;2.85;;;;;;;;;;4937208;28;99953;-79
2023/01/25 00:51:24;;;;;;;7.82;2.90;;;;;;;;;;4939486;28;95105;-78
2023/01/25 00:53:51;;;;;;;7.63;2.95;;;;;;;;;;4947761;28;95582;-79
2023/01/25 00:56:17;;;;;;;7.18;2.97;;;;;;;;;;4949929;28;92488;-78
2023/01/25 00:58:44;;;;;;;5.95;2.50;;;;;;;;;;4930718;28;94168;-78
2023/01/25 01:01:11;;;;;;;6.63;2.70;;;;;;;;;;4947215;28;95307;-78
2023/01/25 01:03:37;;;;;;;6.80;2.85;;;;;;;;;;4949045;28;92930;-78
2023/01/25 01:06:09;;;;;;;8.25;3.08;;;;;;;;;;4940015;28;94012;-78
2023/01/25 01:08:39;;;;;;;6.63;2.80;;;;;;;;;;4948104;28;96151;-79
2023/01/25 01:11:08;;;;;;;6.88;2.85;;;;;;;;;;4952099;28;93299;-78
2023/01/25 01:13:34;;;;;;;6.30;2.95;;;;;;;;;;4946662;28;98664;-78
2023/01/25 01:16:02;;;;;;;6.00;2.70;;;;;;;;;;4946608;28;92879;-77
2023/01/25 01:18:32;;;;;;;7.03;3.00;;;;;;;;;;4932699;28;92694;-78
2023/01/25 01:20:58;;;;;;;6.53;3.03;;;;;;;;;;4929434;28;93019;-77
2023/01/25 01:23:26;;;;;;;7.60;3.05;;;;;;;;;;4931362;28;92385;-79
2023/01/25 01:25:53;;;;;;;9.15;2.92;;;;;;;;;;4929064;28;94525;-78
2023/01/25 01:28:19;;;;;;;7.85;3.00;;;;;;;;;;4928396;28;93129;-78
2023/01/25 01:30:46;;;;;;;7.80;3.00;;;;;;;;;;4938968;28;92075;-78
2023/01/25 01:33:12;;;;;;;7.90;2.97;;;;;;;;;;4950459;28;94491;-78
2023/01/25 01:35:38;;;;;;;9.23;3.33;;;;;;;;;;4938588;28;92384;-78
2023/01/25 01:38:05;;;;;;;8.52;3.08;;;;;;;;;;4929030;28;95286;-78
2023/01/25 01:40:31;;;;;;;9.13;2.97;;;;;;;;;;4947852;28;93540;-78
2023/01/25 01:43:06;;;;;;;10.10;3.33;;;;;;;;;;4949013;28;92745;-78
2023/01/25 01:46:00;;;;;;;7.97;3.10;;;;;;;;;;4946886;28;93898;-78
2023/01/25 01:48:32;;;;;;;8.38;3.28;;;;;;;;;;4925850;28;99879;-78
2023/01/25 01:51:07;;;;;;;8.60;3.60;;;;;;;;;;4953219;28;92815;-78
2023/01/25 01:53:34;;;;;;;7.18;3.28;;;;;;;;;;4943728;28;94885;-78
2023/01/25 01:56:03;;;;;;;7.50;3.40;;;;;;;;;;4926320;28;92157;-78
2023/01/25 01:58:31;;;;;;;7.80;3.33;;;;;;;;;;4927621;28;93408;-78
2023/01/25 02:00:57;;;;;;;8.38;3.72;;;;;;;;;;4937321;28;95867;-78
2023/01/25 02:03:24;;;;;;;8.68;3.53;;;;;;;;;;4945573;28;95194;-78
2023/01/25 02:06:03;;;;;;;8.75;4.22;;;;;;;;;;4935997;28;98164;-78
2023/01/25 02:08:32;;;;;;;7.65;3.58;;;;;;;;;;4930408;28;94962;-78
2023/01/25 02:10:59;;;;;;;7.75;3.60;;;;;;;;;;4944296;28;92855;-78
2023/01/25 02:13:26;;;;;;;8.25;3.60;;;;;;;;;;4940447;28;97229;-78
2023/01/25 02:15:55;;;;;;;7.53;3.97;;;;;;;;;;4947059;28;93336;-78
2023/01/25 02:18:22;;;;;;;8.85;3.80;;;;;;;;;;4948986;28;93370;-78
2023/01/25 02:20:52;;;;;;;8.10;3.70;;;;;;;;;;4938408;28;93691;-78
2023/01/25 02:23:25;;;;;;;8.20;3.70;;;;;;;;;;4946469;28;92596;-78
2023/01/25 02:25:53;;;;;;;7.55;3.60;;;;;;;;;;4946267;28;93271;-78
2023/01/25 02:28:25;;;;;;;7.25;3.40;;;;;;;;;;4941058;28;95278;-78
2023/01/25 02:30:52;;;;;;;8.27;3.90;;;;;;;;;;4929747;28;92709;-78
2023/01/25 02:33:23;;;;;;;8.52;3.65;;;;;;;;;;4944212;28;94325;-78
2023/01/25 02:36:13;;;;;;;8.52;3.65;;;;;;;;;;4933718;28;93258;-78
2023/01/25 02:38:59;;;;;;;9.25;3.83;;;;;;;;;;4924029;28;93375;-78
2023/01/25 02:41:26;;;;;;;9.02;3.83;;;;;;;;;;4945804;28;94166;-78
2023/01/25 02:43:53;;;;;;;8.70;4.25;;;;;;;;;;4946928;28;93630;-78
2023/01/25 02:46:22;;;;;;;9.02;4.07;;;;;;;;;;4949159;28;93231;-78
2023/01/25 02:48:48;;;;;;;9.48;4.00;;;;;;;;;;4947421;28;93415;-78
2023/01/25 02:51:15;;;;;;;7.88;3.65;;;;;;;;;;4935430;28;92973;-78
2023/01/25 02:53:41;;;;;;;8.10;3.88;;;;;;;;;;4946478;28;94945;-76
2023/01/25 02:56:07;;;;;;;8.63;3.80;;;;;;;;;;4947868;28;92846;-78
2023/01/25 02:58:34;;;;;;;8.80;3.90;;;;;;;;;;4946187;28;92904;-78
2023/01/25 03:01:00;;;;;;;8.10;3.58;;;;;;;;;;4948769;28;95347;-78
2023/01/25 03:03:27;;;;;;;9.18;4.38;;;;;;;;;;4930256;28;92586;-78
2023/01/25 03:05:53;;;;;;;8.60;3.67;;;;;;;;;;4942029;28;92889;-78
2023/01/25 03:08:20;;;;;;;8.75;4.00;;;;;;;;;;4940438;28;96204;-78
2023/01/25 03:10:49;;;;;;;7.95;3.72;;;;;;;;;;4945919;28;93432;-78
2023/01/25 03:13:15;;;;;;;10.10;4.22;;;;;;;;;;4946256;28;94404;-78
2023/01/25 03:15:42;;;;;;;8.65;4.00;;;;;;;;;;4945991;28;95142;-77
2023/01/25 03:18:08;;;;;;;10.20;4.05;;;;;;;;;;4944048;28;97576;-78
2023/01/25 03:20:35;;;;;;;7.75;3.92;;;;;;;;;;4946541;28;95207;-78
2023/01/25 03:23:01;;;;;;;8.45;4.03;;;;;;;;;;4939812;28;94196;-78
2023/01/25 03:25:28;;;;;;;10.07;3.83;;;;;;;;;;4945885;28;93674;-77
2023/01/25 03:28:00;;;;;;;10.77;4.03;;;;;;;;;;4944715;28;95165;-78
2023/01/25 03:30:27;;;;;;;8.07;3.67;;;;;;;;;;4945713;28;92889;-78
2023/01/25 03:32:53;;;;;;;9.60;4.32;;;;;;;;;;4944975;28;95687;-78
2023/01/25 03:35:20;;;;;;;10.32;4.28;;;;;;;;;;4945959;28;94320;-78
2023/01/25 03:37:46;;;;;;;9.32;4.20;;;;;;;;;;4944735;28;92628;-77
2023/01/25 03:40:13;;;;;;;8.43;4.15;;;;;;;;;;4945939;28;95174;-77
2023/01/25 03:42:43;;;;;;;7.90;4.18;;;;;;;;;;4943749;28;97970;-77
2023/01/25 03:45:13;;;;;;;8.35;4.22;;;;;;;;;;4947942;28;93922;-79
2023/01/25 03:47:40;;;;;;;9.30;4.65;;;;;;;;;;4938814;28;94541;-79
2023/01/25 03:50:08;;;;;;;9.38;4.20;;;;;;;;;;4946320;28;95267;-78
2023/01/25 03:52:39;;;;;;;9.30;4.10;;;;;;;;;;4939555;28;94966;-79
2023/01/25 03:55:06;;;;;;;8.68;4.07;;;;;;;;;;4947900;28;93821;-79
2023/01/25 03:57:37;;;;;;;9.65;4.20;;;;;;;;;;4945840;28;93246;-78
2023/01/25 04:00:04;;;;;;;10.23;4.30;;;;;;;;;;4945202;28;95393;-78
2023/01/25 04:02:40;;;;;;;8.38;3.90;;;;;;;;;;4946019;28;92910;-78
2023/01/25 04:05:10;;;;;;;8.65;4.35;;;;;;;;;;4948235;28;92871;-78
2023/01/25 04:07:37;;;;;;;10.50;3.80;;;;;;;;;;4939235;28;98377;-78
2023/01/25 04:10:05;;;;;;;9.90;4.35;;;;;;;;;;4926859;28;92772;-78
2023/01/25 04:12:32;;;;;;;9.25;4.20;;;;;;;;;;4929601;28;95053;-78
2023/01/25 04:14:59;;;;;;;8.27;3.97;;;;;;;;;;4946665;28;93011;-78
2023/01/25 04:17:25;;;;;;;8.55;4.10;;;;;;;;;;4944968;28;92649;-78
2023/01/25 04:20:01;;;;;;;11.63;4.40;;;;;;;;;;4943945;28;95882;-78
2023/01/25 04:22:34;;;;;;;10.57;4.50;;;;;;;;;;4934675;28;95382;-79
2023/01/25 04:25:02;;;;;;;17.63;4.57;;;;;;;;;;4945645;28;92262;-79
2023/01/25 04:27:28;;;;;;;9.93;4.50;;;;;;;;;;4947572;28;95103;-78
2023/01/25 04:30:04;;;;;;;9.95;4.72;;;;;;;;;;4929750;28;93049;-78
2023/01/25 04:32:34;;;;;;;10.50;4.72;;;;;;;;;;4944518;28;95692;-78
2023/01/25 04:35:01;;;;;;;10.63;4.82;;;;;;;;;;4944641;28;94508;-77
2023/01/25 04:37:28;;;;;;;13.20;4.85;;;;;;;;;;4948664;28;92999;-78
2023/01/25 04:39:57;;;;;;;13.02;4.38;;;;;;;;;;4948305;28;95632;-78
2023/01/25 04:42:24;;;;;;;;;;;;;;;;;;4949013;28;93361;-78
2023/01/25 04:44:54;;;;;;;11.52;4.55;;;;;;;;;;4949698;28;92830;-79
2023/01/25 04:47:21;;;;;;;11.27;4.20;;;;;;;;;;4948306;28;94966;-79
2023/01/25 04:49:48;;;;;;;11.73;4.63;;;;;;;;;;4962180;28;94769;-78
2023/01/25 04:52:17;;;;;;;11.55;4.28;;;;;;;;;;4919546;28;94924;-79
2023/01/25 04:54:44;;;;;;;10.98;4.50;;;;;;;;;;4930781;28;92687;-78
2023/01/25 04:57:12;;;;;;;9.65;4.45;;;;;;;;;;4927473;28;95364;-79
2023/01/25 04:59:42;;;;;;;9.60;4.60;;;;;;;;;;4928907;28;97507;-77
2023/01/25 05:02:08;;;;;;;12.05;4.72;;;;;;;;;;4928181;28;94949;-79
2023/01/25 05:04:35;;;;;;;12.48;4.63;;;;;;;;;;4929088;28;92985;-78
2023/01/25 05:07:02;;;;;;;11.23;4.47;;;;;;;;;;4919387;28;94829;-79
2023/01/25 05:09:28;;;;;;;10.73;4.60;;;;;;;;;;4930513;28;93339;-78
2023/01/25 05:11:55;;;;;;;10.27;4.68;;;;;;;;;;4946776;28;92823;-79
2023/01/25 05:14:26;;;;;;;10.00;4.38;;;;;;;;;;4948699;28;94717;-79
2023/01/25 05:16:53;;;;;;;10.15;4.72;;;;;;;;;;4938420;28;92602;-79
2023/01/25 05:19:20;;;;;;;9.10;4.53;;;;;;;;;;4949189;28;93898;-78
2023/01/25 05:21:57;;;;;;;12.25;4.43;;;;;;;;;;4920383;28;98247;-78
2023/01/25 05:24:29;;;;;;;9.60;4.50;;;;;;;;;;4947624;28;92533;-78
2023/01/25 05:27:04;;;;;;;17.42;5.40;;;;;;;;;;4948058;28;92899;-78
2023/01/25 05:29:49;;;;;;;9.82;4.43;;;;;;;;;;4948167;28;92639;-78
2023/01/25 05:32:20;;;;;;;16.02;5.00;;;;;;;;;;4931473;28;92554;-78
2023/01/25 05:34:48;;;;;;;21.25;5.53;;;;;;;;;;4950696;28;95371;-79
2023/01/25 05:37:17;;;;;;;12.63;5.07;;;;;;;;;;4931940;28;92899;-78
2023/01/25 05:39:45;;;;;;;14.70;5.03;;;;;;;;;;4947845;28;95724;-78
2023/01/25 05:42:18;;;;;;;11.32;4.65;;;;;;;;;;4947786;28;95846;-79
2023/01/25 05:44:45;;;;;;;11.80;4.50;;;;;;;;;;4947095;28;92624;-79
2023/01/25 05:47:15;;;;;;;11.98;4.95;;;;;;;;;;4946324;28;97202;-79
2023/01/25 05:49:42;;;;;;;10.40;4.57;;;;;;;;;;4945629;28;95592;-77
2023/01/25 05:52:14;;;;;;;11.18;4.57;;;;;;;;;;4922610;28;92720;-79
2023/01/25 05:54:40;;;;;;;10.60;4.80;;;;;;;;;;4944510;28;95822;-79
2023/01/25 05:57:08;;;;;;;;;;;;;;;;;;4948085;28;92693;-79
2023/01/25 05:59:35;;;;;;;10.30;4.20;;;;;;;;;;4947363;28;115552;-79
2023/01/25 06:02:03;;;;;;;8.95;4.05;;;;;;;;;;4945561;28;95653;-79
2023/01/25 06:04:30;;;;;;;10.90;4.50;;;;;;;;;;4947197;28;91793;-79
2023/01/25 06:06:57;;;;;;;10.98;4.60;;;;;;;;;;4949065;28;93082;-79
2023/01/25 06:09:25;;;;;;;8.60;4.07;;;;;;;;;;4947072;28;96060;-79
2023/01/25 06:11:51;;;;;;;9.48;4.60;;;;;;;;;;4944165;28;94974;-78
2023/01/25 06:14:19;;;;;;;;;;;;;;;;;;4936980;28;97755;-78
2023/01/25 06:16:45;;;;;;;9.18;4.43;;;;;;;;;;4954743;28;106179;-79
2023/01/25 06:19:30;;;;;;;10.27;4.45;;;;;;;;;;4949202;28;92483;-79
2023/01/25 06:22:16;;;;;;;10.15;4.22;;;;;;;;;;4936647;28;97901;-79
2023/01/25 06:24:42;;;;;;;11.57;4.85;;;;;;;;;;4947661;28;93241;-79
2023/01/25 06:27:09;;;;;;;11.05;4.85;;;;;;;;;;4947869;28;93193;-80
2023/01/25 06:29:36;;;;;;;11.27;4.85;;;;;;;;;;4947125;28;95081;-78
2023/01/25 06:32:02;;;;;;;9.77;4.93;;;;;;;;;;4946895;28;93627;-79
2023/01/25 06:34:29;;;;;;;9.52;4.85;;;;;;;;;;4946935;28;92805;-78
2023/01/25 06:36:56;;;;;;;9.95;4.57;;;;;;;;;;4945009;28;98151;-80
2023/01/25 06:39:22;;;;;;;9.60;4.70;;;;;;;;;;4951914;28;92816;-78
2023/01/25 06:41:49;;;;;;;10.10;4.80;;;;;;;;;;4947436;28;93642;-78
2023/01/25 06:44:15;;;;;;;9.18;4.70;;;;;;;;;;4946565;28;92670;-78
2023/01/25 06:46:42;;;;;;;10.00;4.90;;;;;;;;;;4946725;28;94828;-78
2023/01/25 06:49:09;;;;;;;8.90;4.65;;;;;;;;;;4947622;28;93442;-80
2023/01/25 06:51:35;;;;;;;10.27;5.03;;;;;;;;;;4920893;28;92622;-79
2023/01/25 06:54:03;;;;;;;9.85;4.70;;;;;;;;;;4928019;28;92706;-80
2023/01/25 06:56:31;;;;;;;10.15;5.25;;;;;;;;;;4922333;28;93285;-80
2023/01/25 06:58:57;;;;;;;9.80;5.07;;;;;;;;;;4928838;28;92881;-80
2023/01/25 07:01:29;;;;;;;10.90;5.32;;;;;;;;;;4929655;28;95497;-80
2023/01/25 07:03:56;;;;;;;9.85;4.93;;;;;;;;;;4935554;28;92549;-80
2023/01/25 07:06:24;;;;;;;9.27;4.75;;;;;;;;;;4939091;28;92650;-80
2023/01/25 07:08:50;;;;;;;9.68;4.57;;;;;;;;;;4946084;28;93080;-80
2023/01/25 07:11:17;;;;;;;9.18;4.78;;;;;;;;;;4937100;28;92499;-80
2023/01/25 07:13:45;;;;;;;11.27;5.03;;;;;;;;;;4927446;28;93723;-79
2023/01/25 07:16:13;;;;;;;9.95;4.95;;;;;;;;;;4928235;28;92797;-80
2023/01/25 07:18:41;;;;;;;9.35;4.72;;;;;;;;;;4929272;28;92157;-78
2023/01/25 07:21:09;;;;;;;13.82;5.35;;;;;;;;;;4924496;28;92835;-79
2023/01/25 07:23:37;;;;;;;10.32;5.22;;;;;;;;;;4925879;28;93656;-79
2023/01/25 07:26:04;;;;;;;9.85;5.15;;;;;;;;;;4926023;28;95255;-79
2023/01/25 07:28:31;;;;;;;10.82;5.13;;;;;;;;;;4928152;28;93051;-79
2023/01/25 07:31:04;;;;;;;10.70;5.00;;;;;;;;;;4928360;28;93003;-79
2023/01/25 07:33:31;;;;;;;10.45;5.00;;;;;;;;;;4928737;28;92957;-79
2023/01/25 07:35:58;;;;;;;11.40;5.25;;;;;;;;;;4932715;28;93012;-79
2023/01/25 07:38:25;;;;;;;10.00;5.32;;;;;;;;;;4914602;28;92504;-79
2023/01/25 07:40:52;;;;;;;9.70;4.97;;;;;;;;;;4928299;28;93318;-79
2023/01/25 07:43:19;;;;;;;10.82;5.53;;;;;;;;;;4928619;28;92742;-79
2023/01/25 07:45:48;;;;;;;11.23;5.60;;;;;;;;;;4930086;28;92950;-80
2023/01/25 07:48:16;;;;;;;10.27;5.35;;;;;;;;;;4929778;28;96003;-77
2023/01/25 07:50:45;;;;;;;14.13;6.10;;;;;;;;;;4930390;28;94877;-77
2023/01/25 07:53:12;;;;;;;12.18;5.45;;;;;;;;;;4924173;28;96944;-78
2023/01/25 07:55:38;;;;;;;12.77;5.50;;;;;;;;;;4927625;28;93203;-78
2023/01/25 07:58:05;;;;;;;10.82;5.13;;;;;;;;;;4927048;28;92499;-78
2023/01/25 08:00:31;;;;;;;11.85;5.38;;;;;;;;;;4927492;28;93194;-78
2023/01/25 08:02:58;;;;;;;12.43;4.85;;;;;;;;;;4926862;28;93171;-78
2023/01/25 08:05:24;;;;;;;10.02;4.78;;;;;;;;;;4929835;28;92791;-77
2023/01/25 08:07:51;;;;;;;9.13;4.53;;;;;;;;;;4919238;28;93572;-78
2023/01/25 08:10:17;;;;;;;9.20;4.45;;;;;;;;;;4932771;28;92647;-77
2023/01/25 08:12:45;;;;;;;9.10;4.38;;;;;;;;;;4930767;28;93739;-77
2023/01/25 08:15:14;;;;;;;9.27;4.38;;;;;;;;;;4929017;28;95718;-78
2023/01/25 08:17:40;;;;;;;9.60;4.32;;;;;;;;;;4928767;28;92546;-76
2023/01/25 08:20:08;;;;;;;10.45;4.13;;;;;;;;;;4929389;28;97293;-77
2023/01/25 08:22:34;;;;;;;12.77;4.82;;;;;;;;;;4920603;28;92859;-78
2023/01/25 08:25:01;;;;;;;8.80;4.30;;;;;;;;;;4930044;28;93167;-77
2023/01/25 08:27:28;;;;;;;9.27;4.28;;;;;;;;;;4933142;28;93360;-79
2023/01/25 08:29:54;;;;;;;9.35;4.95;;;;;;;;;;4929077;28;92797;-77
2023/01/25 08:32:21;;;;;;;8.73;4.43;;;;;;;;;;4931276;28;91668;-77
2023/01/25 08:34:47;;;;;;;9.88;4.40;;;;;;;;;;4931328;28;93050;-77
2023/01/25 08:37:14;;;;;;;11.80;4.35;;;;;;;;;;4933043;28;93767;-79
2023/01/25 08:39:40;;;;;;;9.23;4.55;;;;;;;;;;4932637;28;95165;-78
2023/01/25 08:42:07;;;;;;;10.75;4.30;;;;;;;;;;4930950;28;94766;-78
2023/01/25 08:44:33;;;;;;;21.17;4.78;;;;;;;;;;4929721;28;93188;-79
2023/01/25 08:47:00;;;;;;;9.52;4.15;;;;;;;;;;4924509;28;92872;-79
2023/01/25 08:49:26;;;;;;;10.25;4.45;;;;;;;;;;4930027;28;93114;-77
2023/01/25 08:51:52;;;;;;;8.35;4.03;;;;;;;;;;4947027;28;92728;-78
2023/01/25 08:54:19;;;;;;;10.00;4.13;;;;;;;;;;4953359;28;93522;-79
2023/01/25 08:56:45;;;;;;;9.13;4.00;;;;;;;;;;4950738;28;92062;-78
2023/01/25 08:59:12;;;;;;;8.93;4.00;;;;;;;;;;4957292;28;94858;-75
2023/01/25 09:01:39;;;;;;;10.13;4.30;;;;;;;;;;4957028;28;92471;-77
2023/01/25 09:04:05;;;;;;;7.63;3.90;;;;;;;;;;4948937;28;94929;-77
2023/01/25 09:06:31;;;;;;;8.65;4.28;;;;;;;;;;4933300;28;95281;-78
2023/01/25 09:08:59;;;;;;;9.20;3.92;;;;;;;;;;4928073;28;92997;-78
2023/01/25 09:11:25;;;;;;;7.65;3.90;;;;;;;;;;4946355;28;92378;-78
2023/01/25 09:13:52;;;;;;;8.18;3.95;;;;;;;;;;4942971;28;92446;-77
2023/01/25 09:16:26;;;;;;;8.18;4.22;;;;;;;;;;4939154;28;92950;-77
2023/01/25 09:18:53;;;;;;;7.50;3.70;;;;;;;;;;4937300;28;93833;-77
2023/01/25 09:21:19;;;;;;;8.05;3.75;;;;;;;;;;4929874;28;92827;-77
2023/01/25 09:23:47;;;;;;;9.65;3.97;;;;;;;;;;4946541;28;92439;-77
2023/01/25 09:26:32;;;;;;;13.70;4.65;;;;;;;;;;4945399;28;92873;-78
2023/01/25 09:28:58;;;;;;;8.23;4.60;;;;;;;;;;4941744;28;95357;-78
2023/01/25 09:31:24;;;;;;;8.27;4.30;;;;;;;;;;4946616;28;92686;-78
2023/01/25 09:34:11;;;;;;;8.50;4.30;;;;;;;;;;4948727;28;99617;-78
2023/01/25 09:36:37;;;;;;;8.52;4.55;;;;;;;;;;4949413;28;92799;-78
2023/01/25 09:39:04;;;;;;;8.70;4.78;;;;;;;;;;4949083;28;93120;-78
2023/01/25 09:41:41;;;;;;;8.18;4.65;;;;;;;;;;4948489;28;92970;-78
2023/01/25 09:44:14;;;;;;;8.88;4.88;;;;;;;;;;4947008;28;93113;-78
2023/01/25 09:46:43;;;;;;;8.27;4.50;;;;;;;;;;4948932;28;92706;-78
2023/01/25 09:49:12;;;;;;;8.73;4.20;;;;;;;;;;4945030;28;92961;-78
2023/01/25 09:51:47;;;;;;;8.75;4.47;;;;;;;;;;4948594;28;92896;-78
2023/01/25 09:54:15;;;;;;;8.38;4.63;;;;;;;;;;4933264;28;97595;-77
2023/01/25 09:56:42;;;;;;;9.57;4.50;;;;;;;;;;4949597;28;93300;-77
2023/01/25 09:59:15;;;;;;;8.82;4.55;;;;;;;;;;4946870;28;92910;-78
2023/01/25 10:01:54;;;;;;;9.13;4.20;;;;;;;;;;4941754;28;93117;-76
2023/01/25 10:04:49;;;;;;;9.15;4.72;;;;;;;;;;4935766;28;94552;-78
2023/01/25 10:07:15;;;;;;;8.57;4.68;;;;;;;;;;4925809;28;94263;-78
2023/01/25 10:09:47;;;;;;;8.20;4.50;;;;;;;;;;4942400;28;93257;-77
2023/01/25 10:12:14;;;;;;;8.32;4.50;;;;;;;;;;4927843;28;92061;-77
2023/01/25 10:14:40;;;;;;;8.50;4.30;;;;;;;;;;4928910;28;92752;-77
2023/01/25 10:17:13;;;;;;;9.60;5.00;;;;;;;;;;4931498;28;93126;-78
2023/01/25 10:19:48;;;;;;;8.43;4.80;;;;;;;;;;4922654;28;95523;-78
2023/01/25 10:22:27;;;;;;;9.32;4.97;;;;;;;;;;4918418;28;98005;-78
2023/01/25 10:25:13;;;;;;;7.82;4.50;;;;;;;;;;4924074;28;92629;-78
2023/01/25 10:27:48;;;;;;;8.45;4.70;;;;;;;;;;4920270;28;93011;-78
2023/01/25 10:30:26;;;;;;;8.48;4.60;;;;;;;;;;4935754;28;98629;-79
2023/01/25 10:32:59;;;;;;;8.65;4.50;;;;;;;;;;4938534;28;92948;-79
2023/01/25 10:35:29;;;;;;;8.98;4.65;;;;;;;;;;4945632;28;93464;-78
2023/01/25 10:38:05;;;;;;;7.80;4.25;;;;;;;;;;4946350;28;92296;-77
2023/01/25 10:40:38;;;;;;;8.75;4.60;;;;;;;;;;4945453;28;92690;-79
2023/01/25 10:43:11;;;;;;;9.00;4.82;;;;;;;;;;4932870;28;93277;-79
2023/01/25 10:45:37;;;;;;;9.43;4.97;;;;;;;;;;4925089;28;95396;-79
2023/01/25 10:48:10;;;;;;;8.95;4.93;;;;;;;;;;4943046;28;95793;-79
2023/01/25 10:50:37;;;;;;;9.80;5.20;;;;;;;;;;4929882;28;93720;-78
2023/01/25 10:53:03;;;;;;;9.40;5.05;;;;;;;;;;4938691;28;92643;-79
2023/01/25 10:55:30;;;;;;;8.43;4.57;;;;;;;;;;4929611;28;92863;-79
2023/01/25 10:57:56;;;;;;;11.45;5.30;;;;;;;;;;4930060;28;94834;-79
2023/01/25 11:00:24;;;;;;;8.80;5.00;;;;;;;;;;4929145;28;93537;-78
2023/01/25 11:02:50;;;;;;;9.38;4.80;;;;;;;;;;4931098;28;92720;-79
2023/01/25 11:05:16;;;;;;;8.90;5.10;;;;;;;;;;4929410;28;92976;-79
2023/01/25 11:07:44;;;;;;;9.13;4.90;;;;;;;;;;4932343;28;94142;-78
2023/01/25 11:10:29;;;;;;;8.43;4.82;;;;;;;;;;4934069;28;96290;-79
2023/01/25 11:13:21;;;;;;;8.45;4.80;;;;;;;;;;4929412;28;92936;-79
2023/01/25 11:15:50;;;;;;;8.75;4.85;;;;;;;;;;4929764;28;94866;-79
2023/01/25 11:18:19;;;;;;;8.70;4.75;;;;;;;;;;4933150;28;93333;-79
2023/01/25 11:20:45;;;;;;;9.50;5.10;;;;;;;;;;4926025;28;92579;-78
2023/01/25 11:23:23;;;;;;;8.38;4.85;;;;;;;;;;4931821;28;92459;-79
2023/01/25 11:25:49;;;;;;;8.30;4.90;;;;;;;;;;4937694;28;94120;-79
2023/01/25 11:28:18;;;;;;;9.30;4.88;;;;;;;;;;4930835;28;93790;-79
2023/01/25 11:30:45;;;;;;;8.77;4.80;;;;;;;;;;4932764;28;93188;-79
2023/01/25 11:33:12;;;;;;;9.80;4.80;;;;;;;;;;4925811;28;94261;-80
2023/01/25 11:35:49;;;;;;;8.15;4.60;;;;;;;;;;4939621;28;95624;-80
2023/01/25 11:38:18;;;;;;;10.02;4.40;;;;;;;;;;4944418;28;97834;-79
2023/01/25 11:40:44;;;;;;;8.65;4.88;;;;;;;;;;4947164;28;92754;-79
2023/01/25 11:43:19;;;;;;;9.13;4.88;;;;;;;;;;4940643;28;94763;-80
2023/01/25 11:46:04;;;;;;;8.80;4.78;;;;;;;;;;4949251;28;93144;-78
2023/01/25 11:48:31;;;;;;;;;;;;;;;;;;4951500;28;93393;-80
2023/01/25 11:51:03;;;;;;;8.75;4.45;;;;;;;;;;4950773;28;103841;-79
2023/01/25 11:53:37;;;;;;;9.77;5.05;;;;;;;;;;4951945;28;91693;-78
2023/01/25 11:56:09;;;;;;;8.10;4.53;;;;;;;;;;4950913;28;93105;-78
2023/01/25 11:58:52;;;;;;;9.63;4.82;;;;;;;;;;4949217;28;93449;-78
2023/01/25 12:01:31;;;;;;;9.63;4.80;;;;;;;;;;4941882;28;95955;-77
2023/01/25 12:04:16;;;;;;;8.40;4.65;;;;;;;;;;4948951;28;95231;-78
2023/01/25 12:06:49;;;;;;;9.38;4.90;;;;;;;;;;4947318;28;92894;-77
2023/01/25 12:09:24;;;;;;;9.32;4.82;;;;;;;;;;4951447;28;92928;-80
2023/01/25 12:11:50;;;;;;;8.07;4.35;;;;;;;;;;4953777;28;92843;-80
2023/01/25 12:14:23;;;;;;;8.07;4.35;;;;;;;;;;4947177;28;94454;-81
2023/01/25 12:17:03;;;;;;;8.57;4.57;;;;;;;;;;4948140;28;95632;-81
2023/01/25 12:19:43;;;;;;;10.02;5.03;;;;;;;;;;4941633;28;92561;-78
2023/01/25 12:22:17;;;;;;;9.00;4.88;;;;;;;;;;4947374;28;92693;-79
2023/01/25 12:24:46;;;;;;;8.80;5.18;;;;;;;;;;4949760;28;94050;-80
2023/01/25 12:27:28;;;;;;;8.48;4.95;;;;;;;;;;4947865;28;96626;-79
2023/01/25 12:30:12;;;;;;;7.90;4.40;;;;;;;;;;4947899;28;92894;-79
2023/01/25 12:32:50;;;;;;;7.65;4.25;;;;;;;;;;4952628;28;94812;-79
2023/01/25 12:35:29;;;;;;;7.82;4.53;;;;;;;;;;4949654;28;93256;-80
2023/01/25 12:38:03;;;;;;;8.70;4.20;;;;;;;;;;4946064;28;92899;-81
2023/01/25 12:40:29;;;;;;;;;;;;;;;;;;4949491;28;93243;-80
2023/01/25 12:42:57;;;;;;;7.70;4.10;;;;;;;;;;4942865;28;110962;-80
2023/01/25 12:45:29;;;;;;;7.65;4.22;;;;;;;;;;4929120;28;92608;-81
2023/01/25 12:47:56;;;;;;;8.02;4.40;;;;;;;;;;4914204;28;93399;-79
2023/01/25 12:50:29;;;;;;;8.80;4.50;;;;;;;;;;4937762;28;92615;-80
2023/01/25 12:53:05;;;;;;;8.07;4.53;;;;;;;;;;4926551;28;96187;-80
2023/01/25 12:55:32;;;;;;;8.40;4.47;;;;;;;;;;4930754;28;93138;-80
2023/01/25 12:58:04;;;;;;;8.45;4.57;;;;;;;;;;4921559;28;93401;-81
2023/01/25 13:00:31;;;;;;;11.13;5.55;;;;;;;;;;4932782;28;93566;-81
2023/01/25 13:03:00;;;;;;;11.20;5.95;;;;;;;;;;4930197;28;92619;-78
2023/01/25 13:05:39;;;;;;;11.50;5.88;;;;;;;;;;4929047;28;93720;-79
2023/01/25 13:08:25;;;;;;;10.02;5.00;;;;;;;;;;4926851;28;93152;-78
2023/01/25 13:11:18;;;;;;;10.05;5.10;;;;;;;;;;4917976;28;91913;-78
2023/01/25 13:13:45;;;;;;;11.30;5.20;;;;;;;;;;4928037;28;93467;-79
2023/01/25 13:16:23;;;;;;;9.05;4.72;;;;;;;;;;4928463;28;94366;-79
2023/01/25 13:18:50;;;;;;;9.60;4.80;;;;;;;;;;4937324;28;95471;-79
2023/01/25 13:21:35;;;;;;;8.65;4.47;;;;;;;;;;4944305;28;94227;-80
2023/01/25 13:24:10;;;;;;;9.77;5.20;;;;;;;;;;4925240;28;101811;-78
2023/01/25 13:26:38;;;;;;;11.80;4.60;;;;;;;;;;4925175;28;93064;-80
2023/01/25 13:29:24;;;;;;;16.42;5.10;;;;;;;;;;4925381;28;94328;-79
2023/01/25 13:31:52;;;;;;;16.48;5.35;;;;;;;;;;4923791;28;92789;-79
2023/01/25 13:34:34;;;;;;;14.93;5.20;;;;;;;;;;4929273;28;93818;-79
2023/01/25 13:37:01;;;;;;;11.55;4.80;;;;;;;;;;4915681;28;94731;-79
2023/01/25 13:39:30;;;;;;;;;;;;;;;;;;4942171;28;93205;-79
2023/01/25 13:42:23;;;;;;;11.18;5.53;;;;;;;;;;4947212;28;96445;-79
2023/01/25 13:44:53;;;;;;;12.82;5.40;;;;;;;;;;4944069;28;95307;-79
2023/01/25 13:47:25;;;;;;;10.02;4.93;;;;;;;;;;4948185;28;95559;-79
2023/01/25 13:49:58;;;;;;;14.95;6.00;;;;;;;;;;4926135;28;93687;-79
2023/01/25 13:52:25;;;;;;;11.07;5.55;;;;;;;;;;4913908;28;92887;-79
2023/01/25 13:54:56;;;;;;;11.95;5.50;;;;;;;;;;4927630;28;92884;-79
2023/01/25 13:57:31;;;;;;;12.55;5.47;;;;;;;;;;4928975;28;93530;-79
2023/01/25 14:00:00;;;;;;;13.77;5.90;;;;;;;;;;4929729;28;92710;-79
2023/01/25 14:02:37;;;;;;;11.80;6.15;;;;;;;;;;4930308;28;92813;-79
2023/01/25 14:05:05;;;;;;;11.95;6.60;;;;;;;;;;4927641;28;96194;-80
2023/01/25 14:07:35;;;;;;;11.52;6.70;;;;;;;;;;4927070;28;92754;-80
2023/01/25 14:10:06;;;;;;;12.73;6.72;;;;;;;;;;4932286;28;96028;-80
2023/01/25 14:12:33;;;;;;;11.85;6.55;;;;;;;;;;4948453;28;92433;-80
2023/01/25 14:15:20;;;;;;;11.90;6.72;;;;;;;;;;4945876;28;95186;-80
2023/01/25 14:18:03;;;;;;;12.52;6.63;;;;;;;;;;4927862;28;93081;-78
2023/01/25 14:20:29;;;;;;;12.73;6.57;;;;;;;;;;4928363;28;92926;-80
2023/01/25 14:22:56;;;;;;;12.05;6.60;;;;;;;;;;4915044;28;93145;-79
2023/01/25 14:25:24;;;;;;;11.18;6.35;;;;;;;;;;4922779;28;93021;-80
2023/01/25 14:27:51;;;;;;;11.15;6.30;;;;;;;;;;4926874;28;92176;-79
2023/01/25 14:30:20;;;;;;;11.18;6.10;;;;;;;;;;4935221;28;93144;-79
2023/01/25 14:32:47;;;;;;;10.90;6.10;;;;;;;;;;4942959;28;92858;-79
2023/01/25 14:35:14;;;;;;;;;;;;;;;;;;4948077;28;95416;-80
2023/01/25 14:37:43;;;;;;;10.32;5.97;;;;;;;;;;4944952;28;93192;-80
2023/01/25 14:40:11;;;;;;;10.07;5.50;;;;;;;;;;4942019;28;92916;-80
2023/01/25 14:42:37;;;;;;;10.52;5.75;;;;;;;;;;4931580;28;93758;-80
2023/01/25 14:45:04;;;;;;;9.60;5.75;;;;;;;;;;4948084;28;92974;-79
2023/01/25 14:47:31;;;;;;;10.10;5.93;;;;;;;;;;4946580;28;92730;-80
2023/01/25 14:50:16;;;;;;;11.27;5.97;;;;;;;;;;4940453;28;93151;-81
2023/01/25 14:52:42;;;;;;;13.90;6.30;;;;;;;;;;4936148;28;92769;-80
2023/01/25 14:55:12;;;;;;;11.00;6.43;;;;;;;;;;4942018;28;94011;-81
2023/01/25 14:57:39;;;;;;;11.45;6.70;;;;;;;;;;4946265;28;93239;-80